Airport View

Enter AWOS ICAO identifier for current METAR.

ex. KFNL

KLEW 191956Z AUTO 32004KT 10SM OVC041 M01/M04 A2958 RMK AO2 SLP027 T10061044 FZRANO

19 Jan 2020 20:15

Frequency: 118.025

Phone: 207-783-2806

Other Area AWOS: KPWM - KIWI - KAUG - KIZG

TAF KPWM 191721Z 1918/2018 31008KT P6SM BKN060 FM201300 33008KT P6SM SKC